sensor_id;sensor_type;location;lat;lon;timestamp;pressure;altitude;pressure_sealevel;temperature;humidity
16525;BME280;8375;33.594;-117.718;2023-10-08T00:01:10;99683.50;;;31.42;36.86
16525;BME280;8375;33.594;-117.718;2023-10-08T00:03:40;99684.81;;;31.34;37.63
16525;BME280;8375;33.594;-117.718;2023-10-08T00:06:15;99682.13;;;31.13;36.87
16525;BME280;8375;33.594;-117.718;2023-10-08T00:08:46;99693.91;;;30.97;37.04
16525;BME280;8375;33.594;-117.718;2023-10-08T00:11:15;99693.34;;;30.79;35.85
16525;BME280;8375;33.594;-117.718;2023-10-08T00:13:45;99700.75;;;30.51;34.89
16525;BME280;8375;33.594;-117.718;2023-10-08T00:16:18;99696.16;;;30.36;35.22
16525;BME280;8375;33.594;-117.718;2023-10-08T00:18:48;99699.31;;;30.18;35.86
16525;BME280;8375;33.594;-117.718;2023-10-08T00:21:18;99694.72;;;30.08;35.79
16525;BME280;8375;33.594;-117.718;2023-10-08T00:23:52;99694.91;;;29.96;36.03
16525;BME280;8375;33.594;-117.718;2023-10-08T00:26:24;99690.81;;;29.83;35.51
16525;BME280;8375;33.594;-117.718;2023-10-08T00:28:59;99696.28;;;29.61;34.18
16525;BME280;8375;33.594;-117.718;2023-10-08T00:31:34;99692.69;;;29.45;33.70
16525;BME280;8375;33.594;-117.718;2023-10-08T00:34:07;99687.75;;;29.31;33.44
16525;BME280;8375;33.594;-117.718;2023-10-08T00:36:38;99690.31;;;29.16;33.07
16525;BME280;8375;33.594;-117.718;2023-10-08T00:39:08;99694.44;;;29.01;33.10
16525;BME280;8375;33.594;-117.718;2023-10-08T00:41:41;99698.69;;;28.97;33.66
16525;BME280;8375;33.594;-117.718;2023-10-08T00:44:11;99701.50;;;28.85;34.01
16525;BME280;8375;33.594;-117.718;2023-10-08T00:46:44;99702.78;;;28.77;34.37
16525;BME280;8375;33.594;-117.718;2023-10-08T00:49:17;99706.09;;;28.67;34.55
16525;BME280;8375;33.594;-117.718;2023-10-08T00:52:02;99702.03;;;28.60;35.06
16525;BME280;8375;33.594;-117.718;2023-10-08T00:54:53;99706.19;;;28.50;35.10
16525;BME280;8375;33.594;-117.718;2023-10-08T00:57:34;99713.47;;;28.33;34.46
16525;BME280;8375;33.594;-117.718;2023-10-08T01:00:09;99714.63;;;28.20;35.22
16525;BME280;8375;33.594;-117.718;2023-10-08T01:02:50;99711.41;;;28.01;35.87
16525;BME280;8375;33.594;-117.718;2023-10-08T01:05:27;99723.63;;;27.96;36.25
16525;BME280;8375;33.594;-117.718;2023-10-08T01:08:14;99728.09;;;27.74;37.24
16525;BME280;8375;33.594;-117.718;2023-10-08T01:10:53;99723.25;;;27.53;36.37
16525;BME280;8375;33.594;-117.718;2023-10-08T01:13:30;99728.47;;;27.48;37.04
16525;BME280;8375;33.594;-117.718;2023-10-08T01:16:03;99738.00;;;27.44;37.85
16525;BME280;8375;33.594;-117.718;2023-10-08T01:18:38;99741.97;;;27.42;38.07
16525;BME280;8375;33.594;-117.718;2023-10-08T01:21:10;99731.66;;;27.16;38.61
16525;BME280;8375;33.594;-117.718;2023-10-08T01:23:58;99741.25;;;27.00;38.76
16525;BME280;8375;33.594;-117.718;2023-10-08T01:26:28;99743.50;;;26.79;39.31
16525;BME280;8375;33.594;-117.718;2023-10-08T01:28:59;99744.47;;;26.49;40.10
16525;BME280;8375;33.594;-117.718;2023-10-08T01:31:36;99754.69;;;26.29;41.22
16525;BME280;8375;33.594;-117.718;2023-10-08T01:34:05;99757.59;;;26.15;41.84
16525;BME280;8375;33.594;-117.718;2023-10-08T01:36:34;99749.16;;;26.06;42.24
16525;BME280;8375;33.594;-117.718;2023-10-08T01:39:05;99760.91;;;25.99;43.90
16525;BME280;8375;33.594;-117.718;2023-10-08T01:41:37;99755.81;;;25.85;44.58
16525;BME280;8375;33.594;-117.718;2023-10-08T01:44:07;99756.75;;;25.79;45.09
16525;BME280;8375;33.594;-117.718;2023-10-08T01:46:36;99758.22;;;25.51;45.93
16525;BME280;8375;33.594;-117.718;2023-10-08T01:49:07;99759.81;;;25.52;46.33
16525;BME280;8375;33.594;-117.718;2023-10-08T01:51:41;99763.22;;;25.41;47.05
16525;BME280;8375;33.594;-117.718;2023-10-08T01:54:15;99760.78;;;25.27;47.94
16525;BME280;8375;33.594;-117.718;2023-10-08T01:56:44;99764.34;;;25.21;48.80
16525;BME280;8375;33.594;-117.718;2023-10-08T01:59:14;99768.97;;;24.95;50.82
16525;BME280;8375;33.594;-117.718;2023-10-08T02:01:44;99769.03;;;24.70;51.94
16525;BME280;8375;33.594;-117.718;2023-10-08T02:04:13;99765.50;;;24.57;53.39
16525;BME280;8375;33.594;-117.718;2023-10-08T02:06:43;99775.59;;;24.49;54.02
16525;BME280;8375;33.594;-117.718;2023-10-08T02:09:12;99782.81;;;24.41;54.52
16525;BME280;8375;33.594;-117.718;2023-10-08T02:11:45;99789.72;;;24.24;55.14
16525;BME280;8375;33.594;-117.718;2023-10-08T02:14:16;99785.13;;;24.12;56.59
16525;BME280;8375;33.594;-117.718;2023-10-08T02:16:45;99791.97;;;24.01;57.31
16525;BME280;8375;33.594;-117.718;2023-10-08T02:19:14;99789.00;;;23.84;57.20
16525;BME280;8375;33.594;-117.718;2023-10-08T02:21:45;99798.81;;;23.77;57.37
16525;BME280;8375;33.594;-117.718;2023-10-08T02:24:14;99800.44;;;23.78;57.64
16525;BME280;8375;33.594;-117.718;2023-10-08T02:26:45;99802.06;;;23.79;56.89
16525;BME280;8375;33.594;-117.718;2023-10-08T02:29:14;99796.53;;;23.81;57.34
16525;BME280;8375;33.594;-117.718;2023-10-08T02:31:43;99804.47;;;23.87;57.44
16525;BME280;8375;33.594;-117.718;2023-10-08T02:34:11;99810.16;;;23.91;56.63
16525;BME280;8375;33.594;-117.718;2023-10-08T02:36:41;99803.44;;;23.88;56.76
16525;BME280;8375;33.594;-117.718;2023-10-08T02:39:10;99802.25;;;23.84;56.60
16525;BME280;8375;33.594;-117.718;2023-10-08T02:41:50;99795.91;;;23.85;56.50
16525;BME280;8375;33.594;-117.718;2023-10-08T02:44:19;99805.06;;;23.90;57.08
16525;BME280;8375;33.594;-117.718;2023-10-08T02:46:49;99808.34;;;23.85;57.37
16525;BME280;8375;33.594;-117.718;2023-10-08T02:49:19;99810.63;;;23.81;57.37
16525;BME280;8375;33.594;-117.718;2023-10-08T02:51:49;99811.66;;;23.80;57.05
16525;BME280;8375;33.594;-117.718;2023-10-08T02:54:19;99814.94;;;23.76;57.21
16525;BME280;8375;33.594;-117.718;2023-10-08T02:56:52;99817.81;;;23.74;57.85
16525;BME280;8375;33.594;-117.718;2023-10-08T02:59:28;99818.22;;;23.71;57.93
16525;BME280;8375;33.594;-117.718;2023-10-08T03:02:05;99826.00;;;23.66;57.84
16525;BME280;8375;33.594;-117.718;2023-10-08T03:04:41;99827.66;;;23.60;58.34
16525;BME280;8375;33.594;-117.718;2023-10-08T03:07:14;99826.28;;;23.51;58.71
16525;BME280;8375;33.594;-117.718;2023-10-08T03:09:49;99825.91;;;23.47;58.41
16525;BME280;8375;33.594;-117.718;2023-10-08T03:12:31;99829.41;;;23.41;58.99
16525;BME280;8375;33.594;-117.718;2023-10-08T03:15:00;99831.28;;;23.34;58.68
16525;BME280;8375;33.594;-117.718;2023-10-08T03:17:39;99826.00;;;23.34;59.39
16525;BME280;8375;33.594;-117.718;2023-10-08T03:20:15;99829.25;;;23.29;59.72
16525;BME280;8375;33.594;-117.718;2023-10-08T03:22:56;99832.94;;;23.28;60.95
16525;BME280;8375;33.594;-117.718;2023-10-08T03:25:25;99837.84;;;23.24;63.81
16525;BME280;8375;33.594;-117.718;2023-10-08T03:27:57;99834.41;;;23.10;67.51
16525;BME280;8375;33.594;-117.718;2023-10-08T03:30:25;99831.19;;;23.02;68.75
16525;BME280;8375;33.594;-117.718;2023-10-08T03:32:55;99835.28;;;22.97;69.71
16525;BME280;8375;33.594;-117.718;2023-10-08T03:35:24;99833.03;;;22.94;71.32
16525;BME280;8375;33.594;-117.718;2023-10-08T03:38:03;99833.88;;;22.88;72.79
16525;BME280;8375;33.594;-117.718;2023-10-08T03:40:47;99841.81;;;22.88;73.82
16525;BME280;8375;33.594;-117.718;2023-10-08T03:43:18;99836.72;;;22.86;74.77
16525;BME280;8375;33.594;-117.718;2023-10-08T03:46:00;99842.25;;;22.71;76.84
16525;BME280;8375;33.594;-117.718;2023-10-08T03:48:32;99845.09;;;22.70;77.28
16525;BME280;8375;33.594;-117.718;2023-10-08T03:51:04;99846.75;;;22.64;77.90
16525;BME280;8375;33.594;-117.718;2023-10-08T03:53:38;99846.38;;;22.54;79.01
16525;BME280;8375;33.594;-117.718;2023-10-08T03:56:25;99848.41;;;22.45;79.79
16525;BME280;8375;33.594;-117.718;2023-10-08T03:58:58;99842.31;;;22.45;80.02
16525;BME280;8375;33.594;-117.718;2023-10-08T04:01:30;99845.94;;;22.44;80.07
16525;BME280;8375;33.594;-117.718;2023-10-08T04:04:01;99852.47;;;22.21;82.35
16525;BME280;8375;33.594;-117.718;2023-10-08T04:06:30;99855.50;;;22.18;82.30
16525;BME280;8375;33.594;-117.718;2023-10-08T04:09:05;99851.00;;;22.18;82.06
16525;BME280;8375;33.594;-117.718;2023-10-08T04:11:43;99853.25;;;22.15;82.41
16525;BME280;8375;33.594;-117.718;2023-10-08T04:14:23;99851.03;;;22.11;82.32
16525;BME280;8375;33.594;-117.718;2023-10-08T04:16:54;99860.16;;;22.09;82.76
16525;BME280;8375;33.594;-117.718;2023-10-08T04:19:25;99854.88;;;22.09;83.03
16525;BME280;8375;33.594;-117.718;2023-10-08T04:21:55;99860.78;;;22.04;83.57
16525;BME280;8375;33.594;-117.718;2023-10-08T04:24:26;99863.44;;;22.04;83.83
16525;BME280;8375;33.594;-117.718;2023-10-08T04:27:01;99862.19;;;22.00;84.03
16525;BME280;8375;33.594;-117.718;2023-10-08T04:29:33;99867.03;;;21.83;85.46
16525;BME280;8375;33.594;-117.718;2023-10-08T04:32:04;99865.19;;;21.77;86.09
16525;BME280;8375;33.594;-117.718;2023-10-08T04:34:38;99865.81;;;21.72;86.44
16525;BME280;8375;33.594;-117.718;2023-10-08T04:37:13;99869.06;;;21.74;86.10
16525;BME280;8375;33.594;-117.718;2023-10-08T04:39:46;99866.63;;;21.73;86.13
16525;BME280;8375;33.594;-117.718;2023-10-08T04:42:24;99866.44;;;21.74;86.05
16525;BME280;8375;33.594;-117.718;2023-10-08T04:44:55;99872.09;;;21.71;86.03
16525;BME280;8375;33.594;-117.718;2023-10-08T04:47:25;99875.75;;;21.70;86.13
16525;BME280;8375;33.594;-117.718;2023-10-08T04:50:01;99871.50;;;21.76;86.46
16525;BME280;8375;33.594;-117.718;2023-10-08T04:52:32;99873.13;;;21.77;86.58
16525;BME280;8375;33.594;-117.718;2023-10-08T04:55:12;99875.38;;;21.73;86.59
16525;BME280;8375;33.594;-117.718;2023-10-08T04:57:46;99881.03;;;21.70;86.74
16525;BME280;8375;33.594;-117.718;2023-10-08T05:00:18;99879.34;;;21.62;87.27
16525;BME280;8375;33.594;-117.718;2023-10-08T05:03:07;99878.13;;;21.58;87.78
16525;BME280;8375;33.594;-117.718;2023-10-08T05:05:40;99887.88;;;21.58;87.73
16525;BME280;8375;33.594;-117.718;2023-10-08T05:08:34;99888.06;;;21.56;87.71
16525;BME280;8375;33.594;-117.718;2023-10-08T05:11:14;99889.28;;;21.53;87.94
16525;BME280;8375;33.594;-117.718;2023-10-08T05:13:51;99893.13;;;21.51;87.81
16525;BME280;8375;33.594;-117.718;2023-10-08T05:16:34;99895.75;;;21.44;88.24
16525;BME280;8375;33.594;-117.718;2023-10-08T05:19:26;99905.66;;;21.35;88.63
16525;BME280;8375;33.594;-117.718;2023-10-08T05:22:13;99906.88;;;21.33;88.91
16525;BME280;8375;33.594;-117.718;2023-10-08T05:25:01;99905.81;;;21.27;88.84
16525;BME280;8375;33.594;-117.718;2023-10-08T05:27:38;99909.91;;;21.30;88.87
16525;BME280;8375;33.594;-117.718;2023-10-08T05:30:22;99894.03;;;21.23;88.51
16525;BME280;8375;33.594;-117.718;2023-10-08T05:33:06;99900.53;;;21.20;88.61
16525;BME280;8375;33.594;-117.718;2023-10-08T05:35:50;99886.69;;;21.18;88.33
16525;BME280;8375;33.594;-117.718;2023-10-08T05:38:29;99886.69;;;21.18;88.74
16525;BME280;8375;33.594;-117.718;2023-10-08T05:41:15;99891.16;;;21.18;88.99
16525;BME280;8375;33.594;-117.718;2023-10-08T05:44:05;99890.72;;;21.14;89.17
16525;BME280;8375;33.594;-117.718;2023-10-08T05:46:50;99890.94;;;21.13;89.92
16525;BME280;8375;33.594;-117.718;2023-10-08T05:49:34;99892.50;;;21.07;90.33
16525;BME280;8375;33.594;-117.718;2023-10-08T05:52:21;99892.50;;;21.00;90.46
16525;BME280;8375;33.594;-117.718;2023-10-08T05:55:17;99890.25;;;20.97;90.54
16525;BME280;8375;33.594;-117.718;2023-10-08T05:57:54;99890.00;;;20.92;90.71
16525;BME280;8375;33.594;-117.718;2023-10-08T06:00:40;99888.16;;;20.92;91.03
16525;BME280;8375;33.594;-117.718;2023-10-08T06:03:32;99895.03;;;20.87;91.34
16525;BME280;8375;33.594;-117.718;2023-10-08T06:06:04;99896.22;;;20.84;91.65
16525;BME280;8375;33.594;-117.718;2023-10-08T06:08:46;99893.34;;;20.79;92.08
16525;BME280;8375;33.594;-117.718;2023-10-08T06:11:35;99890.84;;;20.71;92.18
16525;BME280;8375;33.594;-117.718;2023-10-08T06:14:11;99891.47;;;20.73;92.42
16525;BME280;8375;33.594;-117.718;2023-10-08T06:17:03;99903.78;;;20.65;92.46
16525;BME280;8375;33.594;-117.718;2023-10-08T06:19:50;99899.72;;;20.63;92.85
16525;BME280;8375;33.594;-117.718;2023-10-08T06:22:21;99895.00;;;20.58;92.97
16525;BME280;8375;33.594;-117.718;2023-10-08T06:24:52;99898.84;;;20.56;93.27
16525;BME280;8375;33.594;-117.718;2023-10-08T06:27:41;99901.66;;;20.54;93.57
16525;BME280;8375;33.594;-117.718;2023-10-08T06:30:11;99901.03;;;20.52;93.44
16525;BME280;8375;33.594;-117.718;2023-10-08T06:32:44;99895.16;;;20.50;93.31
16525;BME280;8375;33.594;-117.718;2023-10-08T06:35:14;99900.63;;;20.48;93.58
16525;BME280;8375;33.594;-117.718;2023-10-08T06:37:46;99904.88;;;20.49;93.75
16525;BME280;8375;33.594;-117.718;2023-10-08T06:40:21;99898.38;;;20.45;94.65
16525;BME280;8375;33.594;-117.718;2023-10-08T06:43:18;99902.56;;;20.40;95.30
16525;BME280;8375;33.594;-117.718;2023-10-08T06:45:51;99905.72;;;20.28;96.18
16525;BME280;8375;33.594;-117.718;2023-10-08T06:48:25;99907.47;;;20.21;96.30
16525;BME280;8375;33.594;-117.718;2023-10-08T06:50:56;99912.31;;;20.17;96.33
16525;BME280;8375;33.594;-117.718;2023-10-08T06:53:35;99915.97;;;20.16;95.83
16525;BME280;8375;33.594;-117.718;2023-10-08T06:56:05;99914.88;;;20.11;96.46
16525;BME280;8375;33.594;-117.718;2023-10-08T06:58:36;99917.72;;;20.09;97.39
16525;BME280;8375;33.594;-117.718;2023-10-08T07:01:05;99914.00;;;20.03;97.49
16525;BME280;8375;33.594;-117.718;2023-10-08T07:03:36;99914.81;;;20.04;97.52
16525;BME280;8375;33.594;-117.718;2023-10-08T07:06:06;99910.31;;;19.98;97.75
16525;BME280;8375;33.594;-117.718;2023-10-08T07:08:53;99914.09;;;19.95;97.93
16525;BME280;8375;33.594;-117.718;2023-10-08T07:11:25;99920.09;;;19.89;98.51
16525;BME280;8375;33.594;-117.718;2023-10-08T07:13:55;99913.56;;;19.85;98.87
16525;BME280;8375;33.594;-117.718;2023-10-08T07:16:24;99923.47;;;19.83;98.86
16525;BME280;8375;33.594;-117.718;2023-10-08T07:18:55;99921.03;;;19.81;97.99
16525;BME280;8375;33.594;-117.718;2023-10-08T07:21:28;99915.31;;;19.77;97.96
16525;BME280;8375;33.594;-117.718;2023-10-08T07:24:13;99917.31;;;19.75;98.59
16525;BME280;8375;33.594;-117.718;2023-10-08T07:26:44;99916.06;;;19.71;98.99
16525;BME280;8375;33.594;-117.718;2023-10-08T07:29:15;99914.00;;;19.67;99.28
16525;BME280;8375;33.594;-117.718;2023-10-08T07:31:46;99913.25;;;19.58;98.44
16525;BME280;8375;33.594;-117.718;2023-10-08T07:34:19;99913.25;;;19.58;98.47
16525;BME280;8375;33.594;-117.718;2023-10-08T07:36:58;99913.63;;;19.55;98.83
16525;BME280;8375;33.594;-117.718;2023-10-08T07:39:29;99920.09;;;19.52;98.49
16525;BME280;8375;33.594;-117.718;2023-10-08T07:42:04;99906.47;;;19.48;98.70
16525;BME280;8375;33.594;-117.718;2023-10-08T07:44:37;99907.84;;;19.44;98.79
16525;BME280;8375;33.594;-117.718;2023-10-08T07:47:06;99916.28;;;19.40;98.87
16525;BME280;8375;33.594;-117.718;2023-10-08T07:49:37;99916.09;;;19.41;98.41
16525;BME280;8375;33.594;-117.718;2023-10-08T07:52:10;99910.56;;;19.36;98.81
16525;BME280;8375;33.594;-117.718;2023-10-08T07:54:43;99914.56;;;19.32;99.20
16525;BME280;8375;33.594;-117.718;2023-10-08T07:57:12;99909.03;;;19.27;98.61
16525;BME280;8375;33.594;-117.718;2023-10-08T07:59:45;99908.41;;;19.25;98.39
16525;BME280;8375;33.594;-117.718;2023-10-08T08:02:15;99909.75;;;19.20;98.14
16525;BME280;8375;33.594;-117.718;2023-10-08T08:04:50;99914.38;;;19.18;98.31
16525;BME280;8375;33.594;-117.718;2023-10-08T08:07:20;99907.41;;;19.11;99.90
16525;BME280;8375;33.594;-117.718;2023-10-08T08:09:51;99910.66;;;18.98;100.00
16525;BME280;8375;33.594;-117.718;2023-10-08T08:12:25;99912.00;;;18.94;100.00
16525;BME280;8375;33.594;-117.718;2023-10-08T08:14:54;99919.78;;;18.87;100.00
16525;BME280;8375;33.594;-117.718;2023-10-08T08:17:23;99910.44;;;18.84;100.00
16525;BME280;8375;33.594;-117.718;2023-10-08T08:19:53;99930.03;;;18.82;99.93
16525;BME280;8375;33.594;-117.718;2023-10-08T08:22:22;99921.94;;;18.83;100.00
16525;BME280;8375;33.594;-117.718;2023-10-08T08:24:59;99929.56;;;18.78;100.00
16525;BME280;8375;33.594;-117.718;2023-10-08T08:27:32;99923.50;;;18.77;99.95
16525;BME280;8375;33.594;-117.718;2023-10-08T08:30:06;99923.50;;;18.77;100.00
16525;BME280;8375;33.594;-117.718;2023-10-08T08:32:42;99930.03;;;18.82;99.25
16525;BME280;8375;33.594;-117.718;2023-10-08T08:35:14;99927.91;;;18.77;99.04
16525;BME280;8375;33.594;-117.718;2023-10-08T08:37:43;99925.47;;;18.75;98.75
16525;BME280;8375;33.594;-117.718;2023-10-08T08:40:19;99924.94;;;18.80;98.61
16525;BME280;8375;33.594;-117.718;2023-10-08T08:42:49;99916.75;;;18.75;98.60
16525;BME280;8375;33.594;-117.718;2023-10-08T08:45:19;99918.31;;;18.69;98.57
16525;BME280;8375;33.594;-117.718;2023-10-08T08:47:48;99921.28;;;18.66;98.85
16525;BME280;8375;33.594;-117.718;2023-10-08T08:50:18;99916.28;;;18.56;99.76
16525;BME280;8375;33.594;-117.718;2023-10-08T08:52:47;99924.22;;;18.48;99.91
16525;BME280;8375;33.594;-117.718;2023-10-08T08:55:20;99923.88;;;18.51;99.84
16525;BME280;8375;33.594;-117.718;2023-10-08T08:57:50;99918.25;;;18.54;99.29
16525;BME280;8375;33.594;-117.718;2023-10-08T09:00:19;99926.78;;;18.56;99.62
16525;BME280;8375;33.594;-117.718;2023-10-08T09:02:53;99925.16;;;18.55;99.98
16525;BME280;8375;33.594;-117.718;2023-10-08T09:05:22;99919.06;;;18.55;99.72
16525;BME280;8375;33.594;-117.718;2023-10-08T09:08:01;99913.16;;;18.53;99.82
16525;BME280;8375;33.594;-117.718;2023-10-08T09:10:34;99901.38;;;18.48;100.00
16525;BME280;8375;33.594;-117.718;2023-10-08T09:13:06;99899.94;;;18.46;100.00
16525;BME280;8375;33.594;-117.718;2023-10-08T09:15:36;99913.06;;;18.46;100.00
16525;BME280;8375;33.594;-117.718;2023-10-08T09:18:05;99909.16;;;18.42;99.89
16525;BME280;8375;33.594;-117.718;2023-10-08T09:20:37;99912.31;;;18.37;100.00
16525;BME280;8375;33.594;-117.718;2023-10-08T09:23:11;99905.41;;;18.36;100.00
16525;BME280;8375;33.594;-117.718;2023-10-08T09:25:42;99902.78;;;18.36;100.00
16525;BME280;8375;33.594;-117.718;2023-10-08T09:28:12;99900.22;;;18.28;100.00
16525;BME280;8375;33.594;-117.718;2023-10-08T09:30:41;99894.16;;;18.27;100.00
16525;BME280;8375;33.594;-117.718;2023-10-08T09:33:13;99896.78;;;18.27;100.00
16525;BME280;8375;33.594;-117.718;2023-10-08T09:35:42;99896.31;;;18.24;100.00
16525;BME280;8375;33.594;-117.718;2023-10-08T09:38:11;99892.06;;;18.23;100.00
16525;BME280;8375;33.594;-117.718;2023-10-08T09:40:43;99882.72;;;18.20;100.00
16525;BME280;8375;33.594;-117.718;2023-10-08T09:43:12;99878.47;;;18.19;100.00
16525;BME280;8375;33.594;-117.718;2023-10-08T09:45:45;99871.09;;;18.14;100.00
16525;BME280;8375;33.594;-117.718;2023-10-08T09:48:17;99872.72;;;18.15;100.00
16525;BME280;8375;33.594;-117.718;2023-10-08T09:50:48;99861.78;;;18.12;100.00
16525;BME280;8375;33.594;-117.718;2023-10-08T09:53:26;99860.84;;;18.05;100.00
16525;BME280;8375;33.594;-117.718;2023-10-08T09:56:00;99856.25;;;17.98;100.00
16525;BME280;8375;33.594;-117.718;2023-10-08T09:58:31;99851.00;;;17.98;100.00
16525;BME280;8375;33.594;-117.718;2023-10-08T10:01:00;99849.25;;;17.91;100.00
16525;BME280;8375;33.594;-117.718;2023-10-08T10:03:30;99838.94;;;17.89;100.00
16525;BME280;8375;33.594;-117.718;2023-10-08T10:06:01;99833.03;;;17.87;100.00
16525;BME280;8375;33.594;-117.718;2023-10-08T10:08:32;99844.69;;;17.84;100.00
16525;BME280;8375;33.594;-117.718;2023-10-08T10:11:03;99849.16;;;17.84;100.00
16525;BME280;8375;33.594;-117.718;2023-10-08T10:13:35;99857.19;;;17.82;100.00
16525;BME280;8375;33.594;-117.718;2023-10-08T10:16:06;99863.75;;;17.78;100.00
16525;BME280;8375;33.594;-117.718;2023-10-08T10:18:35;99861.66;;;17.73;100.00
16525;BME280;8375;33.594;-117.718;2023-10-08T10:21:25;99862.66;;;17.72;100.00
16525;BME280;8375;33.594;-117.718;2023-10-08T10:23:55;99864.84;;;17.60;100.00
16525;BME280;8375;33.594;-117.718;2023-10-08T10:26:30;99863.06;;;17.61;100.00
16525;BME280;8375;33.594;-117.718;2023-10-08T10:29:22;99858.66;;;17.53;100.00
16525;BME280;8375;33.594;-117.718;2023-10-08T10:31:53;99862.16;;;17.45;100.00
16525;BME280;8375;33.594;-117.718;2023-10-08T10:34:24;99857.88;;;17.44;100.00
16525;BME280;8375;33.594;-117.718;2023-10-08T10:36:55;99851.81;;;17.44;100.00
16525;BME280;8375;33.594;-117.718;2023-10-08T10:39:26;99842.84;;;17.38;100.00
16525;BME280;8375;33.594;-117.718;2023-10-08T10:41:59;99851.16;;;17.42;100.00
16525;BME280;8375;33.594;-117.718;2023-10-08T10:44:33;99857.25;;;17.42;100.00
16525;BME280;8375;33.594;-117.718;2023-10-08T10:47:03;99842.34;;;17.35;100.00
16525;BME280;8375;33.594;-117.718;2023-10-08T10:49:50;99859.59;;;17.29;100.00
16525;BME280;8375;33.594;-117.718;2023-10-08T10:52:22;99851.56;;;17.22;100.00
16525;BME280;8375;33.594;-117.718;2023-10-08T10:55:02;99849.94;;;17.21;100.00
16525;BME280;8375;33.594;-117.718;2023-10-08T10:57:48;99848.50;;;17.19;100.00
16525;BME280;8375;33.594;-117.718;2023-10-08T11:00:48;99842.28;;;17.11;100.00
16525;BME280;8375;33.594;-117.718;2023-10-08T11:03:23;99846.38;;;17.14;100.00
16525;BME280;8375;33.594;-117.718;2023-10-08T11:05:57;99843.28;;;17.10;100.00
16525;BME280;8375;33.594;-117.718;2023-10-08T11:08:32;99834.13;;;17.06;100.00
16525;BME280;8375;33.594;-117.718;2023-10-08T11:11:02;99848.22;;;17.05;100.00
16525;BME280;8375;33.594;-117.718;2023-10-08T11:13:36;99851.63;;;17.06;100.00
16525;BME280;8375;33.594;-117.718;2023-10-08T11:16:09;99846.06;;;17.09;100.00
16525;BME280;8375;33.594;-117.718;2023-10-08T11:18:43;99851.63;;;17.06;100.00
16525;BME280;8375;33.594;-117.718;2023-10-08T11:21:13;99855.25;;;17.05;100.00
16525;BME280;8375;33.594;-117.718;2023-10-08T11:23:44;99859.03;;;17.02;100.00
16525;BME280;8375;33.594;-117.718;2023-10-08T11:26:19;99857.22;;;16.94;100.00
16525;BME280;8375;33.594;-117.718;2023-10-08T11:28:57;99855.56;;;16.93;100.00
16525;BME280;8375;33.594;-117.718;2023-10-08T11:31:29;99862.63;;;16.93;100.00
16525;BME280;8375;33.594;-117.718;2023-10-08T11:34:00;99862.63;;;16.93;100.00
16525;BME280;8375;33.594;-117.718;2023-10-08T11:36:36;99866.91;;;16.85;100.00
16525;BME280;8375;33.594;-117.718;2023-10-08T11:39:15;99866.72;;;16.87;100.00
16525;BME280;8375;33.594;-117.718;2023-10-08T11:41:56;99859.06;;;16.77;100.00
16525;BME280;8375;33.594;-117.718;2023-10-08T11:44:30;99860.22;;;16.75;100.00
16525;BME280;8375;33.594;-117.718;2023-10-08T11:47:04;99867.25;;;16.74;100.00
16525;BME280;8375;33.594;-117.718;2023-10-08T11:49:38;99859.06;;;16.77;100.00
16525;BME280;8375;33.594;-117.718;2023-10-08T11:52:13;99856.94;;;16.72;100.00
16525;BME280;8375;33.594;-117.718;2023-10-08T11:54:44;99851.88;;;16.71;100.00
16525;BME280;8375;33.594;-117.718;2023-10-08T11:57:14;99861.06;;;16.67;100.00
16525;BME280;8375;33.594;-117.718;2023-10-08T11:59:48;99865.63;;;16.65;100.00
16525;BME280;8375;33.594;-117.718;2023-10-08T12:02:21;99864.00;;;16.64;100.00
16525;BME280;8375;33.594;-117.718;2023-10-08T12:04:49;99857.78;;;16.56;100.00
16525;BME280;8375;33.594;-117.718;2023-10-08T12:07:18;99855.31;;;16.55;100.00
16525;BME280;8375;33.594;-117.718;2023-10-08T12:09:47;99856.47;;;16.52;100.00
16525;BME280;8375;33.594;-117.718;2023-10-08T12:12:16;99855.66;;;16.52;100.00
16525;BME280;8375;33.594;-117.718;2023-10-08T12:14:49;99853.88;;;16.52;100.00
16525;BME280;8375;33.594;-117.718;2023-10-08T12:17:23;99856.81;;;16.49;100.00
16525;BME280;8375;33.594;-117.718;2023-10-08T12:20:07;99854.53;;;16.46;100.00
16525;BME280;8375;33.594;-117.718;2023-10-08T12:22:50;99859.13;;;16.44;100.00
16525;BME280;8375;33.594;-117.718;2023-10-08T12:25:19;99865.00;;;16.46;100.00
16525;BME280;8375;33.594;-117.718;2023-10-08T12:27:49;99860.41;;;16.48;100.00
16525;BME280;8375;33.594;-117.718;2023-10-08T12:30:18;99866.78;;;16.46;100.00
16525;BME280;8375;33.594;-117.718;2023-10-08T12:32:59;99882.19;;;16.49;100.00
16525;BME280;8375;33.594;-117.718;2023-10-08T12:35:27;99883.50;;;16.36;100.00
16525;BME280;8375;33.594;-117.718;2023-10-08T12:37:58;99898.06;;;16.39;100.00
16525;BME280;8375;33.594;-117.718;2023-10-08T12:40:27;99889.25;;;16.40;100.00
16525;BME280;8375;33.594;-117.718;2023-10-08T12:43:08;99892.00;;;16.47;100.00
16525;BME280;8375;33.594;-117.718;2023-10-08T12:45:38;99895.59;;;16.46;100.00
16525;BME280;8375;33.594;-117.718;2023-10-08T12:48:09;99895.94;;;16.42;100.00
16525;BME280;8375;33.594;-117.718;2023-10-08T12:50:40;99904.44;;;16.45;100.00
16525;BME280;8375;33.594;-117.718;2023-10-08T12:53:12;99906.25;;;16.36;100.00
16525;BME280;8375;33.594;-117.718;2023-10-08T12:55:42;99909.34;;;16.31;100.00
16525;BME280;8375;33.594;-117.718;2023-10-08T12:58:12;99902.66;;;16.28;100.00
16525;BME280;8375;33.594;-117.718;2023-10-08T13:00:43;99909.03;;;16.26;100.00
16525;BME280;8375;33.594;-117.718;2023-10-08T13:03:17;99914.59;;;16.23;100.00
16525;BME280;8375;33.594;-117.718;2023-10-08T13:05:49;99922.28;;;16.24;100.00
16525;BME280;8375;33.594;-117.718;2023-10-08T13:08:20;99928.84;;;16.20;100.00
16525;BME280;8375;33.594;-117.718;2023-10-08T13:10:48;99920.78;;;16.13;100.00